sensor_id;sensor_type;location;lat;lon;timestamp;pressure;altitude;pressure_sealevel;temperature;humidity
4767;BME280;2397;53.576;9.746;2023-04-22T00:01:14;101282.31;;;12.55;47.75
4767;BME280;2397;53.576;9.746;2023-04-22T00:03:41;101278.44;;;12.50;48.37
4767;BME280;2397;53.576;9.746;2023-04-22T00:06:07;101275.78;;;12.50;47.11
4767;BME280;2397;53.576;9.746;2023-04-22T00:08:34;101271.13;;;12.44;48.10
4767;BME280;2397;53.576;9.746;2023-04-22T00:11:01;101273.22;;;12.40;47.84
4767;BME280;2397;53.576;9.746;2023-04-22T00:13:28;101261.34;;;12.44;47.32
4767;BME280;2397;53.576;9.746;2023-04-22T00:15:54;101259.16;;;12.40;47.86
4767;BME280;2397;53.576;9.746;2023-04-22T00:18:21;101262.63;;;12.40;47.44
4767;BME280;2397;53.576;9.746;2023-04-22T00:20:47;101265.50;;;12.47;46.92
4767;BME280;2397;53.576;9.746;2023-04-22T00:23:14;101261.97;;;12.38;47.26
4767;BME280;2397;53.576;9.746;2023-04-22T00:25:41;101247.97;;;12.46;47.17
4767;BME280;2397;53.576;9.746;2023-04-22T00:28:07;101244.72;;;12.52;47.20
4767;BME280;2397;53.576;9.746;2023-04-22T00:30:34;101239.56;;;12.33;47.58
4767;BME280;2397;53.576;9.746;2023-04-22T00:33:01;101241.16;;;12.26;47.27
4767;BME280;2397;53.576;9.746;2023-04-22T00:35:28;101231.63;;;12.33;47.58
4767;BME280;2397;53.576;9.746;2023-04-22T00:37:55;101246.75;;;12.40;46.45
4767;BME280;2397;53.576;9.746;2023-04-22T00:40:22;101237.06;;;12.49;46.77
4767;BME280;2397;53.576;9.746;2023-04-22T00:42:49;101228.75;;;12.44;46.66
4767;BME280;2397;53.576;9.746;2023-04-22T00:45:16;101230.56;;;12.43;47.15
4767;BME280;2397;53.576;9.746;2023-04-22T00:47:44;101227.41;;;12.40;47.21
4767;BME280;2397;53.576;9.746;2023-04-22T00:50:11;101226.69;;;12.38;46.67
4767;BME280;2397;53.576;9.746;2023-04-22T00:52:38;101224.53;;;12.51;46.05
4767;BME280;2397;53.576;9.746;2023-04-22T00:55:05;101216.34;;;12.44;46.69
4767;BME280;2397;53.576;9.746;2023-04-22T00:57:33;101212.53;;;12.47;46.60
4767;BME280;2397;53.576;9.746;2023-04-22T01:00:03;101211.19;;;12.43;47.12
4767;BME280;2397;53.576;9.746;2023-04-22T01:02:30;101214.81;;;12.42;46.73
4767;BME280;2397;53.576;9.746;2023-04-22T01:04:58;101213.47;;;12.38;46.88
4767;BME280;2397;53.576;9.746;2023-04-22T01:07:25;101208.47;;;12.35;47.74
4767;BME280;2397;53.576;9.746;2023-04-22T01:09:52;101203.66;;;12.30;47.59
4767;BME280;2397;53.576;9.746;2023-04-22T01:12:18;101209.97;;;12.20;48.95
4767;BME280;2397;53.576;9.746;2023-04-22T01:14:45;101206.03;;;12.24;48.50
4767;BME280;2397;53.576;9.746;2023-04-22T01:17:12;101202.13;;;12.28;47.79
4767;BME280;2397;53.576;9.746;2023-04-22T01:19:40;101203.88;;;12.37;47.63
4767;BME280;2397;53.576;9.746;2023-04-22T01:22:10;101194.94;;;12.38;47.59
4767;BME280;2397;53.576;9.746;2023-04-22T01:24:37;101193.66;;;12.42;47.69
4767;BME280;2397;53.576;9.746;2023-04-22T01:27:04;101188.66;;;12.39;47.77
4767;BME280;2397;53.576;9.746;2023-04-22T01:29:31;101189.66;;;12.38;47.94
4767;BME280;2397;53.576;9.746;2023-04-22T01:31:59;101186.34;;;12.36;47.60
4767;BME280;2397;53.576;9.746;2023-04-22T01:34:29;101184.41;;;12.46;47.38
4767;BME280;2397;53.576;9.746;2023-04-22T01:36:55;101180.19;;;12.53;46.99
4767;BME280;2397;53.576;9.746;2023-04-22T01:39:22;101179.53;;;12.51;47.42
4767;BME280;2397;53.576;9.746;2023-04-22T01:41:49;101174.22;;;12.51;47.17
4767;BME280;2397;53.576;9.746;2023-04-22T01:44:16;101172.84;;;12.47;48.01
4767;BME280;2397;53.576;9.746;2023-04-22T01:46:42;101177.47;;;12.45;48.20
4767;BME280;2397;53.576;9.746;2023-04-22T01:49:09;101172.25;;;12.35;48.19
4767;BME280;2397;53.576;9.746;2023-04-22T01:51:36;101168.63;;;12.36;47.88
4767;BME280;2397;53.576;9.746;2023-04-22T01:54:02;101168.59;;;12.54;47.98
4767;BME280;2397;53.576;9.746;2023-04-22T01:56:29;101169.59;;;12.53;47.87
4767;BME280;2397;53.576;9.746;2023-04-22T01:58:56;101158.63;;;12.48;48.09
4767;BME280;2397;53.576;9.746;2023-04-22T02:01:23;101159.38;;;12.40;48.14
4767;BME280;2397;53.576;9.746;2023-04-22T02:03:49;101158.44;;;12.41;48.30
4767;BME280;2397;53.576;9.746;2023-04-22T02:06:17;101162.81;;;12.33;48.63
4767;BME280;2397;53.576;9.746;2023-04-22T02:08:43;101155.03;;;12.31;49.26
4767;BME280;2397;53.576;9.746;2023-04-22T02:11:11;101156.69;;;12.32;48.54
4767;BME280;2397;53.576;9.746;2023-04-22T02:13:39;101154.19;;;12.31;48.80
4767;BME280;2397;53.576;9.746;2023-04-22T02:16:06;101148.06;;;12.30;48.31
4767;BME280;2397;53.576;9.746;2023-04-22T02:18:33;101150.63;;;12.40;48.28
4767;BME280;2397;53.576;9.746;2023-04-22T02:21:00;101129.06;;;12.35;48.66
4767;BME280;2397;53.576;9.746;2023-04-22T02:23:27;101133.16;;;12.29;48.70
4767;BME280;2397;53.576;9.746;2023-04-22T02:25:54;101128.25;;;12.34;48.57
4767;BME280;2397;53.576;9.746;2023-04-22T02:28:21;101130.97;;;12.25;49.26
4767;BME280;2397;53.576;9.746;2023-04-22T02:30:48;101129.81;;;12.10;49.35
4767;BME280;2397;53.576;9.746;2023-04-22T02:33:14;101133.53;;;12.17;49.27
4767;BME280;2397;53.576;9.746;2023-04-22T02:35:41;101124.78;;;12.16;49.92
4767;BME280;2397;53.576;9.746;2023-04-22T02:38:09;101120.94;;;12.11;49.44
4767;BME280;2397;53.576;9.746;2023-04-22T02:40:35;101118.13;;;12.12;49.50
4767;BME280;2397;53.576;9.746;2023-04-22T02:43:02;101117.59;;;12.09;49.61
4767;BME280;2397;53.576;9.746;2023-04-22T02:45:29;101114.94;;;12.09;49.99
4767;BME280;2397;53.576;9.746;2023-04-22T02:47:56;101114.56;;;12.04;50.38
4767;BME280;2397;53.576;9.746;2023-04-22T02:50:23;101117.53;;;12.01;50.49
4767;BME280;2397;53.576;9.746;2023-04-22T02:52:49;101118.44;;;12.09;49.60
4767;BME280;2397;53.576;9.746;2023-04-22T02:55:16;101110.94;;;12.05;49.98
4767;BME280;2397;53.576;9.746;2023-04-22T02:57:43;101107.38;;;11.96;50.07
4767;BME280;2397;53.576;9.746;2023-04-22T03:00:10;101106.19;;;12.08;49.45
4767;BME280;2397;53.576;9.746;2023-04-22T03:02:36;101104.22;;;12.10;49.91
4767;BME280;2397;53.576;9.746;2023-04-22T03:05:11;101105.28;;;12.00;49.91
4767;BME280;2397;53.576;9.746;2023-04-22T03:07:37;101092.88;;;12.00;50.04
4767;BME280;2397;53.576;9.746;2023-04-22T03:10:04;101093.84;;;11.99;50.15
4767;BME280;2397;53.576;9.746;2023-04-22T03:12:32;101090.06;;;12.02;49.89
4767;BME280;2397;53.576;9.746;2023-04-22T03:14:59;101090.22;;;12.00;50.05
4767;BME280;2397;53.576;9.746;2023-04-22T03:17:28;101088.50;;;11.91;51.41
4767;BME280;2397;53.576;9.746;2023-04-22T03:19:57;101092.28;;;11.89;50.64
4767;BME280;2397;53.576;9.746;2023-04-22T03:22:23;101091.44;;;11.88;50.40
4767;BME280;2397;53.576;9.746;2023-04-22T03:24:54;101089.94;;;11.86;51.12
4767;BME280;2397;53.576;9.746;2023-04-22T03:27:21;101087.59;;;11.83;51.21
4767;BME280;2397;53.576;9.746;2023-04-22T03:29:48;101076.00;;;11.84;50.97
4767;BME280;2397;53.576;9.746;2023-04-22T03:32:14;101082.22;;;11.75;51.38
4767;BME280;2397;53.576;9.746;2023-04-22T03:34:41;101071.34;;;11.78;51.14
4767;BME280;2397;53.576;9.746;2023-04-22T03:37:08;101072.00;;;11.80;50.66
4767;BME280;2397;53.576;9.746;2023-04-22T03:39:35;101067.63;;;11.71;51.70
4767;BME280;2397;53.576;9.746;2023-04-22T03:42:02;101063.72;;;11.75;51.43
4767;BME280;2397;53.576;9.746;2023-04-22T03:44:29;101067.19;;;11.75;51.39
4767;BME280;2397;53.576;9.746;2023-04-22T03:46:56;101058.56;;;11.73;51.37
4767;BME280;2397;53.576;9.746;2023-04-22T03:49:28;101053.44;;;11.72;52.41
4767;BME280;2397;53.576;9.746;2023-04-22T03:51:55;101059.16;;;11.67;51.73
4767;BME280;2397;53.576;9.746;2023-04-22T03:54:24;101055.84;;;11.65;52.27
4767;BME280;2397;53.576;9.746;2023-04-22T03:56:51;101043.34;;;11.58;52.77
4767;BME280;2397;53.576;9.746;2023-04-22T03:59:19;101044.72;;;11.62;51.77
4767;BME280;2397;53.576;9.746;2023-04-22T04:01:50;101039.16;;;11.65;52.44
4767;BME280;2397;53.576;9.746;2023-04-22T04:04:19;101045.72;;;11.61;52.10
4767;BME280;2397;53.576;9.746;2023-04-22T04:06:54;101037.78;;;11.61;52.17
4767;BME280;2397;53.576;9.746;2023-04-22T04:09:21;101034.75;;;11.56;52.16
4767;BME280;2397;53.576;9.746;2023-04-22T04:11:48;101028.56;;;11.65;52.15
4767;BME280;2397;53.576;9.746;2023-04-22T04:14:16;101035.56;;;11.56;52.84
4767;BME280;2397;53.576;9.746;2023-04-22T04:16:47;101032.97;;;11.47;53.12
4767;BME280;2397;53.576;9.746;2023-04-22T04:19:22;101030.81;;;11.60;52.65
4767;BME280;2397;53.576;9.746;2023-04-22T04:21:49;101027.91;;;11.63;52.65
4767;BME280;2397;53.576;9.746;2023-04-22T04:24:17;101034.75;;;11.56;53.24
4767;BME280;2397;53.576;9.746;2023-04-22T04:26:46;101032.09;;;11.56;52.74
4767;BME280;2397;53.576;9.746;2023-04-22T04:29:19;101033.75;;;11.57;53.04
4767;BME280;2397;53.576;9.746;2023-04-22T04:31:55;101027.22;;;11.61;52.87
4767;BME280;2397;53.576;9.746;2023-04-22T04:34:23;101030.81;;;11.60;53.46
4767;BME280;2397;53.576;9.746;2023-04-22T04:36:49;101031.81;;;11.59;52.92
4767;BME280;2397;53.576;9.746;2023-04-22T04:39:25;101022.63;;;11.63;52.65
4767;BME280;2397;53.576;9.746;2023-04-22T04:41:55;101025.94;;;11.65;52.84
4767;BME280;2397;53.576;9.746;2023-04-22T04:44:25;101025.19;;;11.72;52.32
4767;BME280;2397;53.576;9.746;2023-04-22T04:46:54;101028.97;;;11.70;52.98
4767;BME280;2397;53.576;9.746;2023-04-22T04:49:21;101025.47;;;11.69;52.91
4767;BME280;2397;53.576;9.746;2023-04-22T04:51:56;101031.28;;;11.73;52.66
4767;BME280;2397;53.576;9.746;2023-04-22T04:54:24;101035.00;;;11.80;52.79
4767;BME280;2397;53.576;9.746;2023-04-22T04:56:51;101030.53;;;11.80;52.77
4767;BME280;2397;53.576;9.746;2023-04-22T04:59:18;101021.47;;;11.83;52.40
4767;BME280;2397;53.576;9.746;2023-04-22T05:01:46;101024.47;;;11.88;52.58
4767;BME280;2397;53.576;9.746;2023-04-22T05:04:13;101027.81;;;11.90;52.71
4767;BME280;2397;53.576;9.746;2023-04-22T05:06:42;101024.47;;;11.88;52.49
4767;BME280;2397;53.576;9.746;2023-04-22T05:09:08;101031.16;;;11.92;52.36
4767;BME280;2397;53.576;9.746;2023-04-22T05:11:35;101055.09;;;11.90;52.99
4767;BME280;2397;53.576;9.746;2023-04-22T05:14:09;101047.31;;;11.89;53.03
4767;BME280;2397;53.576;9.746;2023-04-22T05:16:39;101039.25;;;11.90;52.41
4767;BME280;2397;53.576;9.746;2023-04-22T05:19:07;101040.03;;;11.91;53.06
4767;BME280;2397;53.576;9.746;2023-04-22T05:21:34;101032.03;;;11.83;53.46
4767;BME280;2397;53.576;9.746;2023-04-22T05:24:02;101022.97;;;11.85;53.69
4767;BME280;2397;53.576;9.746;2023-04-22T05:26:29;101021.78;;;11.80;54.42
4767;BME280;2397;53.576;9.746;2023-04-22T05:28:55;101012.47;;;11.93;52.55
4767;BME280;2397;53.576;9.746;2023-04-22T05:31:22;101012.09;;;11.88;53.47
4767;BME280;2397;53.576;9.746;2023-04-22T05:33:49;101022.88;;;11.95;53.05
4767;BME280;2397;53.576;9.746;2023-04-22T05:36:16;101018.81;;;12.00;53.20
4767;BME280;2397;53.576;9.746;2023-04-22T05:38:45;101025.94;;;12.00;52.79
4767;BME280;2397;53.576;9.746;2023-04-22T05:41:11;101034.06;;;12.06;53.12
4767;BME280;2397;53.576;9.746;2023-04-22T05:43:38;101019.34;;;12.29;52.36
4767;BME280;2397;53.576;9.746;2023-04-22T05:46:09;101017.50;;;12.22;51.88
4767;BME280;2397;53.576;9.746;2023-04-22T05:48:38;101027.78;;;12.25;52.14
4767;BME280;2397;53.576;9.746;2023-04-22T05:51:09;101025.78;;;12.27;52.58
4767;BME280;2397;53.576;9.746;2023-04-22T05:53:35;101023.84;;;12.29;52.17
4767;BME280;2397;53.576;9.746;2023-04-22T05:56:02;101029.03;;;12.38;52.88
4767;BME280;2397;53.576;9.746;2023-04-22T05:58:28;101025.22;;;12.41;52.57
4767;BME280;2397;53.576;9.746;2023-04-22T06:01:00;101024.59;;;12.47;52.75
4767;BME280;2397;53.576;9.746;2023-04-22T06:03:47;101026.94;;;12.50;52.90
4767;BME280;2397;53.576;9.746;2023-04-22T06:06:14;101022.72;;;12.65;52.05
4767;BME280;2397;53.576;9.746;2023-04-22T06:08:41;101020.22;;;12.63;52.94
4767;BME280;2397;53.576;9.746;2023-04-22T06:11:09;101020.41;;;12.62;53.45
4767;BME280;2397;53.576;9.746;2023-04-22T06:13:36;101017.97;;;12.76;52.44
4767;BME280;2397;53.576;9.746;2023-04-22T06:16:02;101018.16;;;12.83;52.37
4767;BME280;2397;53.576;9.746;2023-04-22T06:18:31;101022.66;;;12.82;52.22
4767;BME280;2397;53.576;9.746;2023-04-22T06:20:58;101011.22;;;12.82;53.07
4767;BME280;2397;53.576;9.746;2023-04-22T06:23:25;101017.38;;;12.82;52.95
4767;BME280;2397;53.576;9.746;2023-04-22T06:25:51;101012.16;;;12.98;52.08
4767;BME280;2397;53.576;9.746;2023-04-22T06:28:18;101009.50;;;12.98;52.31
4767;BME280;2397;53.576;9.746;2023-04-22T06:30:47;101009.34;;;13.00;52.20
4767;BME280;2397;53.576;9.746;2023-04-22T06:33:14;101015.16;;;13.03;52.82
4767;BME280;2397;53.576;9.746;2023-04-22T06:35:41;101020.28;;;13.05;53.04
4767;BME280;2397;53.576;9.746;2023-04-22T06:38:07;101019.06;;;13.33;52.30
4767;BME280;2397;53.576;9.746;2023-04-22T06:40:42;101019.41;;;13.38;52.68
4767;BME280;2397;53.576;9.746;2023-04-22T06:43:16;101015.44;;;13.50;52.08
4767;BME280;2397;53.576;9.746;2023-04-22T06:46:15;101021.09;;;13.47;52.58
4767;BME280;2397;53.576;9.746;2023-04-22T06:49:00;101016.13;;;13.60;51.55
4767;BME280;2397;53.576;9.746;2023-04-22T06:51:47;101011.19;;;13.65;52.09
4767;BME280;2397;53.576;9.746;2023-04-22T06:54:13;101017.81;;;13.69;52.30
4767;BME280;2397;53.576;9.746;2023-04-22T06:56:40;101012.03;;;13.82;51.97
4767;BME280;2397;53.576;9.746;2023-04-22T06:59:07;101011.66;;;13.93;50.92
4767;BME280;2397;53.576;9.746;2023-04-22T07:01:34;101012.03;;;13.90;51.10
4767;BME280;2397;53.576;9.746;2023-04-22T07:04:01;101006.53;;;13.99;50.89
4767;BME280;2397;53.576;9.746;2023-04-22T07:06:27;101000.22;;;14.08;51.70
4767;BME280;2397;53.576;9.746;2023-04-22T07:08:54;101003.22;;;14.21;51.35
4767;BME280;2397;53.576;9.746;2023-04-22T07:11:20;100996.91;;;14.14;50.43
4767;BME280;2397;53.576;9.746;2023-04-22T07:13:57;100998.94;;;14.28;50.72
4767;BME280;2397;53.576;9.746;2023-04-22T07:16:23;100990.25;;;14.42;49.89
4767;BME280;2397;53.576;9.746;2023-04-22T07:18:50;100991.22;;;14.49;50.12
4767;BME280;2397;53.576;9.746;2023-04-22T07:21:16;100998.06;;;14.52;49.24
4767;BME280;2397;53.576;9.746;2023-04-22T07:23:43;100993.34;;;14.62;49.21
4767;BME280;2397;53.576;9.746;2023-04-22T07:26:09;100993.50;;;14.76;48.94
4767;BME280;2397;53.576;9.746;2023-04-22T07:28:36;100984.44;;;14.93;48.38
4767;BME280;2397;53.576;9.746;2023-04-22T07:31:03;100983.41;;;15.02;48.64
4767;BME280;2397;53.576;9.746;2023-04-22T07:33:29;100984.38;;;15.09;48.61
4767;BME280;2397;53.576;9.746;2023-04-22T07:35:56;100994.63;;;15.20;47.96
4767;BME280;2397;53.576;9.746;2023-04-22T07:38:23;100984.97;;;15.19;48.45
4767;BME280;2397;53.576;9.746;2023-04-22T07:40:50;100981.25;;;15.36;47.68
4767;BME280;2397;53.576;9.746;2023-04-22T07:43:16;100981.78;;;15.54;47.70
4767;BME280;2397;53.576;9.746;2023-04-22T07:45:43;100976.06;;;15.65;47.90
4767;BME280;2397;53.576;9.746;2023-04-22T07:48:10;100976.41;;;15.85;48.70
4767;BME280;2397;53.576;9.746;2023-04-22T07:50:36;100981.69;;;16.07;48.21
4767;BME280;2397;53.576;9.746;2023-04-22T07:53:04;100975.38;;;16.23;46.38
4767;BME280;2397;53.576;9.746;2023-04-22T07:55:31;100979.59;;;16.32;46.23
4767;BME280;2397;53.576;9.746;2023-04-22T07:57:57;100976.72;;;16.41;47.40
4767;BME280;2397;53.576;9.746;2023-04-22T08:00:26;100969.63;;;16.48;46.36
4767;BME280;2397;53.576;9.746;2023-04-22T08:02:52;100970.13;;;16.52;45.65
4767;BME280;2397;53.576;9.746;2023-04-22T08:05:19;100968.19;;;16.60;46.39
4767;BME280;2397;53.576;9.746;2023-04-22T08:07:46;100967.16;;;16.76;46.74
4767;BME280;2397;53.576;9.746;2023-04-22T08:10:12;100951.78;;;16.92;45.46
4767;BME280;2397;53.576;9.746;2023-04-22T08:12:39;100961.03;;;17.11;45.51
4767;BME280;2397;53.576;9.746;2023-04-22T08:15:06;100970.44;;;17.28;46.64
4767;BME280;2397;53.576;9.746;2023-04-22T08:17:32;100956.16;;;17.15;44.78
4767;BME280;2397;53.576;9.746;2023-04-22T08:19:59;100961.63;;;17.28;46.85
4767;BME280;2397;53.576;9.746;2023-04-22T08:22:26;100956.75;;;17.46;45.62
4767;BME280;2397;53.576;9.746;2023-04-22T08:24:52;100954.03;;;17.67;44.54
4767;BME280;2397;53.576;9.746;2023-04-22T08:27:22;100939.44;;;17.84;45.71
4767;BME280;2397;53.576;9.746;2023-04-22T08:29:48;100933.19;;;17.98;44.67
4767;BME280;2397;53.576;9.746;2023-04-22T08:32:15;100941.16;;;18.19;43.67
4767;BME280;2397;53.576;9.746;2023-04-22T08:34:42;100938.31;;;18.27;44.01
4767;BME280;2397;53.576;9.746;2023-04-22T08:37:09;100928.88;;;18.31;42.93
4767;BME280;2397;53.576;9.746;2023-04-22T08:39:35;100923.81;;;18.15;44.13
4767;BME280;2397;53.576;9.746;2023-04-22T08:42:02;100932.97;;;18.27;42.97
4767;BME280;2397;53.576;9.746;2023-04-22T08:44:29;100935.00;;;18.25;45.05
4767;BME280;2397;53.576;9.746;2023-04-22T08:46:57;100932.84;;;18.35;44.44
4767;BME280;2397;53.576;9.746;2023-04-22T08:49:28;100920.00;;;18.51;45.28
4767;BME280;2397;53.576;9.746;2023-04-22T08:51:55;100931.00;;;18.76;43.26
4767;BME280;2397;53.576;9.746;2023-04-22T08:54:22;100923.84;;;18.83;43.34
4767;BME280;2397;53.576;9.746;2023-04-22T08:56:49;100930.69;;;18.98;42.87
4767;BME280;2397;53.576;9.746;2023-04-22T08:59:17;100924.97;;;19.08;42.22
4767;BME280;2397;53.576;9.746;2023-04-22T09:01:48;100929.25;;;19.02;44.12
4767;BME280;2397;53.576;9.746;2023-04-22T09:04:17;100914.84;;;18.97;43.29
4767;BME280;2397;53.576;9.746;2023-04-22T09:06:44;100915.44;;;18.99;42.26
4767;BME280;2397;53.576;9.746;2023-04-22T09:09:11;100927.41;;;19.03;43.00
4767;BME280;2397;53.576;9.746;2023-04-22T09:11:37;100928.88;;;19.18;43.43
4767;BME280;2397;53.576;9.746;2023-04-22T09:14:04;100921.13;;;19.30;42.22
4767;BME280;2397;53.576;9.746;2023-04-22T09:16:32;100923.81;;;19.30;43.29
4767;BME280;2397;53.576;9.746;2023-04-22T09:18:59;100919.91;;;19.39;42.44
4767;BME280;2397;53.576;9.746;2023-04-22T09:21:27;100929.19;;;19.43;42.10
4767;BME280;2397;53.576;9.746;2023-04-22T09:23:55;100927.13;;;19.45;42.39
4767;BME280;2397;53.576;9.746;2023-04-22T09:26:24;100925.91;;;19.54;43.22
4767;BME280;2397;53.576;9.746;2023-04-22T09:28:53;100920.13;;;19.57;41.78
4767;BME280;2397;53.576;9.746;2023-04-22T09:31:20;100921.19;;;19.56;43.05
4767;BME280;2397;53.576;9.746;2023-04-22T09:33:52;100922.84;;;19.70;43.06
4767;BME280;2397;53.576;9.746;2023-04-22T09:36:31;100921.59;;;19.79;41.90
4767;BME280;2397;53.576;9.746;2023-04-22T09:39:06;100918.69;;;19.93;42.06
4767;BME280;2397;53.576;9.746;2023-04-22T09:41:38;100915.41;;;19.98;40.85
4767;BME280;2397;53.576;9.746;2023-04-22T09:44:13;100908.81;;;19.94;42.10
4767;BME280;2397;53.576;9.746;2023-04-22T09:46:41;100903.66;;;20.12;40.88
4767;BME280;2397;53.576;9.746;2023-04-22T09:49:09;100896.00;;;20.09;40.63
4767;BME280;2397;53.576;9.746;2023-04-22T09:51:39;100895.00;;;20.17;41.62
4767;BME280;2397;53.576;9.746;2023-04-22T09:54:08;100889.81;;;20.28;42.55
4767;BME280;2397;53.576;9.746;2023-04-22T09:56:48;100890.38;;;20.43;42.35
4767;BME280;2397;53.576;9.746;2023-04-22T09:59:23;100887.41;;;20.71;39.48
4767;BME280;2397;53.576;9.746;2023-04-22T10:02:00;100876.50;;;20.66;39.97
4767;BME280;2397;53.576;9.746;2023-04-22T10:04:29;100871.03;;;20.85;39.47
4767;BME280;2397;53.576;9.746;2023-04-22T10:06:56;100876.38;;;20.92;41.14
4767;BME280;2397;53.576;9.746;2023-04-22T10:09:24;100864.81;;;20.91;39.55
4767;BME280;2397;53.576;9.746;2023-04-22T10:11:52;100856.72;;;21.04;39.41
4767;BME280;2397;53.576;9.746;2023-04-22T10:14:21;100869.66;;;21.14;41.15
4767;BME280;2397;53.576;9.746;2023-04-22T10:16:49;100861.91;;;21.30;39.30
4767;BME280;2397;53.576;9.746;2023-04-22T10:19:20;100855.00;;;21.41;38.80
4767;BME280;2397;53.576;9.746;2023-04-22T10:21:52;100856.13;;;21.58;37.70
4767;BME280;2397;53.576;9.746;2023-04-22T10:24:20;100854.16;;;21.71;37.98
4767;BME280;2397;53.576;9.746;2023-04-22T10:26:55;100852.88;;;21.80;37.74
4767;BME280;2397;53.576;9.746;2023-04-22T10:29:25;100847.19;;;21.88;37.77
4767;BME280;2397;53.576;9.746;2023-04-22T10:31:54;100841.69;;;22.01;36.81
4767;BME280;2397;53.576;9.746;2023-04-22T10:34:22;100846.75;;;22.27;38.42
4767;BME280;2397;53.576;9.746;2023-04-22T10:37:00;100835.88;;;22.40;37.35
4767;BME280;2397;53.576;9.746;2023-04-22T10:39:28;100835.78;;;22.47;37.01
4767;BME280;2397;53.576;9.746;2023-04-22T10:47:30;100825.34;;;22.86;37.40
4767;BME280;2397;53.576;9.746;2023-04-22T10:52:49;100829.88;;;23.16;39.24
4767;BME280;2397;53.576;9.746;2023-04-22T10:55:17;100822.59;;;23.34;36.07
4767;BME280;2397;53.576;9.746;2023-04-22T10:57:46;100808.97;;;23.29;34.43
4767;BME280;2397;53.576;9.746;2023-04-22T11:00:31;100805.97;;;23.08;35.08
4767;BME280;2397;53.576;9.746;2023-04-22T11:03:17;100811.19;;;23.21;35.33
4767;BME280;2397;53.576;9.746;2023-04-22T11:05:46;100807.03;;;23.48;34.86
4767;BME280;2397;53.576;9.746;2023-04-22T11:08:15;100792.16;;;23.68;34.84
4767;BME280;2397;53.576;9.746;2023-04-22T11:10:45;100789.22;;;23.93;34.26
4767;BME280;2397;53.576;9.746;2023-04-22T11:13:19;100777.91;;;24.19;34.30
4767;BME280;2397;53.576;9.746;2023-04-22T11:15:48;100786.09;;;24.24;32.92
4767;BME280;2397;53.576;9.746;2023-04-22T11:18:23;100783.81;;;24.04;35.37
4767;BME280;2397;53.576;9.746;2023-04-22T11:20:51;100777.38;;;24.05;33.44
4767;BME280;2397;53.576;9.746;2023-04-22T11:23:26;100772.63;;;24.24;34.61
4767;BME280;2397;53.576;9.746;2023-04-22T11:25:55;100780.34;;;24.60;34.61
4767;BME280;2397;53.576;9.746;2023-04-22T11:28:22;100775.41;;;24.96;33.79
4767;BME280;2397;53.576;9.746;2023-04-22T11:30:48;100761.78;;;24.91;32.36
4767;BME280;2397;53.576;9.746;2023-04-22T11:33:16;100759.28;;;25.01;32.94
4767;BME280;2397;53.576;9.746;2023-04-22T11:35:43;100753.41;;;25.21;32.15
4767;BME280;2397;53.576;9.746;2023-04-22T11:38:09;100761.69;;;25.47;32.43
4767;BME280;2397;53.576;9.746;2023-04-22T11:40:39;100755.25;;;25.70;32.45
4767;BME280;2397;53.576;9.746;2023-04-22T11:43:10;100752.81;;;25.52;31.95
4767;BME280;2397;53.576;9.746;2023-04-22T11:45:38;100761.81;;;25.57;32.10
4767;BME280;2397;53.576;9.746;2023-04-22T11:48:06;100753.13;;;25.72;31.19
4767;BME280;2397;53.576;9.746;2023-04-22T11:50:34;100757.94;;;25.32;31.59
4767;BME280;2397;53.576;9.746;2023-04-22T11:55:39;100746.63;;;24.18;33.52
4767;BME280;2397;53.576;9.746;2023-04-22T11:58:08;100735.22;;;24.27;34.27
4767;BME280;2397;53.576;9.746;2023-04-22T12:01:01;100736.59;;;24.86;33.52
4767;BME280;2397;53.576;9.746;2023-04-22T12:03:29;100730.88;;;24.99;33.53
4767;BME280;2397;53.576;9.746;2023-04-22T12:06:04;100734.31;;;25.27;32.67
4767;BME280;2397;53.576;9.746;2023-04-22T12:08:38;100736.09;;;25.55;33.58
4767;BME280;2397;53.576;9.746;2023-04-22T12:11:10;100727.03;;;25.61;32.02
4767;BME280;2397;53.576;9.746;2023-04-22T12:16:08;100718.53;;;25.74;32.64
4767;BME280;2397;53.576;9.746;2023-04-22T12:18:37;100712.91;;;25.97;29.60
4767;BME280;2397;53.576;9.746;2023-04-22T12:21:10;100711.16;;;25.69;29.44
4767;BME280;2397;53.576;9.746;2023-04-22T12:23:46;100712.94;;;25.42;29.93
4767;BME280;2397;53.576;9.746;2023-04-22T12:26:14;100710.19;;;25.97;31.44
4767;BME280;2397;53.576;9.746;2023-04-22T12:28:42;100705.44;;;25.66;29.52
4767;BME280;2397;53.576;9.746;2023-04-22T12:31:09;100704.25;;;25.95;29.20
4767;BME280;2397;53.576;9.746;2023-04-22T12:33:36;100693.72;;;26.20;28.71
4767;BME280;2397;53.576;9.746;2023-04-22T12:36:04;100692.13;;;26.77;28.79
4767;BME280;2397;53.576;9.746;2023-04-22T12:38:31;100682.75;;;26.85;28.79
4767;BME280;2397;53.576;9.746;2023-04-22T12:40:58;100677.53;;;27.15;27.39
4767;BME280;2397;53.576;9.746;2023-04-22T12:43:25;100686.16;;;27.43;29.50
4767;BME280;2397;53.576;9.746;2023-04-22T12:45:52;100669.53;;;27.25;27.46
4767;BME280;2397;53.576;9.746;2023-04-22T12:48:19;100684.28;;;26.49;28.57
4767;BME280;2397;53.576;9.746;2023-04-22T12:50:46;100677.75;;;26.19;29.21
4767;BME280;2397;53.576;9.746;2023-04-22T12:53:12;100679.81;;;26.60;28.00
4767;BME280;2397;53.576;9.746;2023-04-22T12:55:39;100671.03;;;26.26;28.37
4767;BME280;2397;53.576;9.746;2023-04-22T12:58:09;100675.41;;;26.27;29.24
4767;BME280;2397;53.576;9.746;2023-04-22T13:00:36;100671.63;;;26.28;28.74
4767;BME280;2397;53.576;9.746;2023-04-22T13:03:02;100666.75;;;26.04;29.35
4767;BME280;2397;53.576;9.746;2023-04-22T13:05:29;100657.28;;;25.63;29.39
4767;BME280;2397;53.576;9.746;2023-04-22T13:07:56;100661.78;;;25.96;29.87
4767;BME280;2397;53.576;9.746;2023-04-22T13:10:32;100650.25;;;26.32;28.62
4767;BME280;2397;53.576;9.746;2023-04-22T13:12:59;100648.28;;;26.80;28.16
4767;BME280;2397;53.576;9.746;2023-04-22T13:15:47;100643.88;;;27.06;27.74
4767;BME280;2397;53.576;9.746;2023-04-22T13:18:20;100637.53;;;26.59;28.67
4767;BME280;2397;53.576;9.746;2023-04-22T13:20:47;100642.13;;;26.58;28.15
4767;BME280;2397;53.576;9.746;2023-04-22T13:23:14;100641.41;;;26.68;28.10
4767;BME280;2397;53.576;9.746;2023-04-22T13:25:42;100648.28;;;26.80;28.95
4767;BME280;2397;53.576;9.746;2023-04-22T13:28:09;100645.22;;;26.67;28.32
4767;BME280;2397;53.576;9.746;2023-04-22T13:30:36;100637.16;;;27.13;28.13